Data for 03/18/2008

Time Sea-Level Adjusted Pressure Absolute Pressure Temperature Relative Humidity Dew Point   
(mb) (inHg) (mb) (inHg) (C) (F) (%) (C) (F)
00:05 1016 30 846 24.98 1.8 35.3 51 -7.2 19
00:10 1016 30 846 24.98 2 35.6 50 -7.4 18.7
00:15 1016 30 846 24.98 2 35.6 49 -7.5 18.5
00:20 1016 30 846 24.98 1.8 35.3 54 -6.6 20.1
00:25 1016 30 846 24.98 1.3 34.4 57 -6.3 20.7
00:30 1016 30 846 24.98 1.1 34 61 -5.6 21.9
00:35 1016 30 846 24.98 0.9 33.7 64 -5.2 22.6
00:40 1016 30 846 24.98 0.8 33.5 64 -5.2 22.7
00:45 1016 30 846 24.98 0.8 33.5 65 -5.1 22.9
00:50 1016 30 846 24.98 0.9 33.6 65 -5 23
00:55 1016 30 845 24.95 1 33.8 63 -5.3 22.5
01:00 1016 30 845 24.95 1.1 33.9 63 -5.1 22.8
01:05 1016 30 845 24.95 1 33.8 62 -5.5 22.2
01:10 1016 30 845 24.95 1.2 34.1 60 -5.8 21.5
01:15 1016 30 845 24.95 1.1 34.1 61 -5.5 22.2
01:20 1016 30 845 24.95 1 33.7 62 -5.5 22
01:25 1016 30 845 24.95 1 33.7 63 -5.4 22.3
01:30 1016 30 845 24.95 0.9 33.5 63 -5.5 22.2
01:35 1016 30 845 24.95 0.9 33.5 62 -5.5 22
01:40 1016 30 845 24.95 0.9 33.6 62 -5.6 22
01:45 1016 30 845 24.95 1 33.7 63 -5.3 22.4
01:50 1016 30 845 24.95 0.9 33.6 64 -5.2 22.6
01:55 1016 30 845 24.95 0.9 33.7 63 -5.3 22.4
02:00 1016 30 845 24.95 1.1 33.9 62 -5.5 22.1
02:05 1016 30 845 24.95 1.4 34.5 56 -6.5 20.3
02:10 1016 30 845 24.95 2.1 35.7 51 -7.1 19.3
02:15 1016 30 845 24.95 2.3 36.1 51 -6.8 19.7
02:20 1016 30 845 24.95 2.2 35.9 51 -7 19.4
02:25 1016 30 845 24.95 2.2 35.9 51 -7 19.4
02:30 1016 30 845 24.95 2.2 36 51 -6.9 19.6
02:35 1016 30 845 24.95 2.1 35.9 52 -6.7 19.9
02:40 1016 30 845 24.95 2.1 35.7 52 -6.7 19.9
02:45 1016 30 845 24.95 2 35.7 53 -6.7 20
02:50 1016 30 846 24.98 2.1 35.8 51 -6.9 19.7
02:55 1016 30 846 24.98 2.2 36 51 -6.8 19.7
03:00 1016 30 846 24.98 2.3 36.1 51 -6.9 19.6
03:05 1016 30 846 24.98 2.1 35.8 54 -6.3 20.7
03:10 1016 30 846 24.98 1.7 35.1 57 -6 21.2
03:15 1016 30 846 24.98 1.6 34.9 57 -6.1 21.1
03:20 1016 30 846 24.98 1.7 35 58 -5.8 21.6
03:25 1016 30 846 24.98 1.7 35 58 -5.8 21.6
03:30 1016 30 846 24.98 1.8 35.2 56 -6 21.2
03:35 1016 30 845 24.95 2.1 35.7 54 -6.3 20.7
03:40 1016 30 845 24.95 2.1 35.7 54 -6.2 20.8
03:45 1016 30 845 24.95 2 35.6 55 -6 21.1
03:50 1016 30 845 24.95 1.9 35.5 57 -5.8 21.6
03:55 1016 30 846 24.98 1.8 35.2 59 -5.4 22.3
04:00 1016 30 846 24.98 1.6 34.8 59 -5.5 22.1
04:05 1016 30 846 24.98 1.5 34.7 61 -5.3 22.5
04:10 1016 30 846 24.98 1.3 34.3 65 -4.5 23.9
04:15 1016 30 846 24.98 1.2 34.2 67 -4.3 24.2
04:20 1016 30 846 24.98 1.2 34.2 67 -4.3 24.3
04:25 1016 30 846 24.98 1.3 34.3 67 -4.3 24.3
04:30 1016 30 845 24.95 1.3 34.3 67 -4.2 24.4
04:35 1016 30 845 24.95 1.2 34.1 67 -4.2 24.5
04:40 1016 30 845 24.95 1 33.8 68 -4.3 24.3
04:45 1016 30 845 24.95 1 33.7 68 -4.3 24.3
04:50 1016 30 845 24.95 0.9 33.7 69 -4.2 24.5
04:55 1016 30 845 24.95 0.6 33.1 71 -4 24.8
05:00 1016 30 845 24.95 0.3 32.5 73 -4.1 24.7
05:05 1016 30 845 24.95 0.2 32.3 73 -4.1 24.6
05:10 1016 30 845 24.95 0.1 32.2 74 -4 24.7
05:15 1016 30 845 24.95 0.2 32.3 74 -4 24.7
05:20 1016 30 845 24.95 0.1 32.1 75 -3.9 24.9
05:25 1016 30 845 24.95 -0 32 75 -3.9 25
05:30 1016 30 845 24.95 -0.1 31.8 76 -3.9 25.1
05:35 1016 30 845 24.95 -0.3 31.5 77 -3.8 25.1
05:40 1016 30 845 24.95 -0.3 31.4 77 -3.9 24.9
05:45 1016 30 845 24.95 -0.1 31.8 76 -3.9 25
05:50 1016 30 845 24.95 -0 31.9 75 -3.9 24.9
05:55 1016 30 845 24.95 -0 32 75 -3.9 25
06:00 1016 30 845 24.95 -0.1 31.8 75 -4 24.8
06:05 1016 30 845 24.95 -0 31.9 75 -4 24.8
06:10 1016 30 845 24.95 0.1 32.3 74 -3.9 25
06:15 1016 30 845 24.95 0.2 32.3 74 -4 24.8
06:20 1016 30 845 24.95 0.2 32.3 74 -3.9 24.9
06:25 1016 30 845 24.95 0.5 32.9 71 -4.2 24.5
06:30 1016 30 845 24.95 0.7 33.2 70 -4.2 24.4
06:35 1016 30 845 24.95 0.7 33.2 68 -4.6 23.7
06:40 1016 30 845 24.95 0.7 33.2 67 -4.7 23.5
06:45 1016 30 845 24.95 0.8 33.5 64 -5.1 22.7
06:50 1016 30 845 24.95 1.1 34 62 -5.4 22.3
06:55 1016 30 846 24.98 1.2 34.1 60 -5.7 21.8
07:00 1016 30 846 24.98 1.2 34.2 58 -6.1 21.1
07:05 1016 30 845 24.95 1.2 34.1 58 -6.2 20.9
07:10 1016 30 845 24.95 1 33.7 58 -6.4 20.5
07:15 1016 30 845 24.95 0.9 33.7 57 -6.5 20.2
07:20 1016 30 846 24.98 0.9 33.5 57 -6.6 20.1
07:25 1016 30 846 24.98 0.8 33.4 58 -6.6 20.2
07:30 1016 30 846 24.98 0.7 33.2 59 -6.6 20.2
07:35 1016 30 846 24.98 0.6 33 59 -6.5 20.2
07:40 1016 30 846 24.98 0.4 32.7 60 -6.5 20.3
07:45 1017 30.03 846 24.98 0.3 32.6 60 -6.5 20.3
07:50 1017 30.03 846 24.98 0.4 32.7 60 -6.5 20.3
07:55 1017 30.03 846 24.98 0.5 32.9 60 -6.4 20.4
08:00 1017 30.03 846 24.98 0.5 33 60 -6.3 20.6
08:05 1017 30.03 846 24.98 0.7 33.2 60 -6.3 20.7
08:10 1017 30.03 846 24.98 0.7 33.2 59 -6.4 20.6
08:15 1017 30.03 846 24.98 0.8 33.5 59 -6.3 20.7
08:20 1017 30.03 846 24.98 1.1 34 58 -6.2 20.9
08:25 1017 30.03 846 24.98 1.4 34.5 57 -6.2 20.8
08:30 1017 30.03 846 24.98 1.4 34.4 58 -6.1 21.1
08:35 1017 30.03 846 24.98 1.2 34.2 58 -6.2 20.9
08:40 1017 30.03 846 24.98 1.1 34 58 -6.1 20.9
08:45 1017 30.03 846 24.98 0.9 33.6 59 -6.2 20.9
08:50 1017 30.03 846 24.98 0.7 33.3 60 -6.1 21.1
08:55 1017 30.03 846 24.98 0.7 33.3 61 -6 21.2
09:00 1017 30.03 846 24.98 0.6 33.1 61 -6 21.2
09:05 1017 30.03 846 24.98 0.5 32.9 62 -6.1 21.1
09:10 1017 30.03 846 24.98 0.7 33.2 61 -6.1 21
09:15 1017 30.03 846 24.98 1 33.7 58 -6.4 20.4
09:20 1017 30.03 846 24.98 1.5 34.7 55 -6.6 20.1
09:25 1017 30.03 846 24.98 1.8 35.3 53 -6.8 19.7
09:30 1017 30.03 846 24.98 2.3 36.1 51 -7 19.5
09:35 1017 30.03 846 24.98 2.6 36.7 49 -7.1 19.2
09:40 1017 30.03 846 24.98 2.9 37.2 48 -7.2 19
09:45 1017 30.03 846 24.98 3.1 37.6 46 -7.3 18.8
09:50 1017 30.03 846 24.98 3.4 38.2 46 -7.2 19
09:55 1017 30.03 846 24.98 3.7 38.7 44 -7.4 18.7
10:00 1017 30.03 846 24.98 4.5 40.2 42 -7.2 19.1
10:05 1017 30.03 846 24.98 4.8 40.6 43 -6.7 20
10:10 1017 30.03 846 24.98 5 41 41 -7.4 18.8
10:15 1017 30.03 846 24.98 5 40.9 38 -8.1 17.4
10:20 1017 30.03 846 24.98 5.1 41.1 39 -7.8 17.9
10:25 1017 30.03 846 24.98 5.1 41.2 38 -8 17.5
10:30 1017 30.03 846 24.98 5 41 38 -8.3 17.1
10:35 1017 30.03 846 24.98 5.1 41.1 39 -7.8 18
10:40 1017 30.03 846 24.98 4.8 40.7 40 -7.8 18
10:45 1017 30.03 846 24.98 5.1 41.1 41 -7.2 19
10:50 1017 30.03 846 24.98 4.8 40.7 40 -7.7 18.2
10:55 1017 30.03 846 24.98 4.5 40.1 40 -8 17.7
11:00 1017 30.03 846 24.98 4.3 39.8 41 -7.7 18.2
11:05 1017 30.03 846 24.98 4.2 39.6 41 -7.9 17.8
11:10 1017 30.03 846 24.98 4.3 39.7 42 -7.4 18.6
11:15 1017 30.03 846 24.98 4.4 40 44 -6.8 19.7
11:20 1017 30.03 846 24.98 4.5 40.2 44 -6.6 20.1
11:25 1017 30.03 846 24.98 4.9 40.8 41 -7.4 18.7
11:30 1017 30.03 846 24.98 4.9 40.9 41 -7.1 19.1
11:35 1016 30 846 24.98 5.3 41.5 41 -7 19.4
11:40 1016 30 846 24.98 5.2 41.3 41 -7 19.3
11:45 1016 30 846 24.98 4.8 40.6 40 -7.8 17.9
11:50 1016 30 846 24.98 4.7 40.4 39 -8.2 17.3
11:55 1016 30 845 24.95 5.3 41.5 38 -8 17.6
12:00 1016 30 845 24.95 5.6 42 37 -8.1 17.5
12:05 1016 30 845 24.95 6.2 43.2 36 -7.9 17.8
12:10 1016 30 845 24.95 6.5 43.6 34 -8.3 17.1
12:15 1016 30 845 24.95 6.5 43.7 33 -8.5 16.6
12:20 1016 30 845 24.95 6.3 43.4 35 -8 17.6
12:25 1016 30 845 24.95 6.5 43.7 33 -8.5 16.7
12:30 1016 30 845 24.95 6.6 43.9 34 -8.3 17.1
12:35 1016 30 845 24.95 6.7 44 32 -8.9 16
12:40 1016 30 845 24.95 6.5 43.7 34 -8.4 16.9
12:45 1016 30 845 24.95 6.6 43.8 33 -8.4 16.9
12:50 1016 30 845 24.95 6.6 43.8 33 -8.4 16.9
12:55 1016 30 845 24.95 6.8 44.3 34 -8.1 17.4
13:00 1016 30 845 24.95 7.1 44.7 33 -8.1 17.5
13:05 1016 30 845 24.95 6.9 44.4 33 -8.3 17.1
13:10 1016 30 845 24.95 6.8 44.3 35 -7.6 18.4
13:15 1016 30 845 24.95 7 44.5 34 -7.7 18.2
13:20 1016 30 845 24.95 6.8 44.3 35 -7.7 18.2
13:25 1016 30 845 24.95 6.7 44.1 34 -8 17.5
13:30 1015 29.97 845 24.95 6.8 44.3 34 -8 17.6
13:35 1015 29.97 845 24.95 6.8 44.2 34 -8.2 17.3
13:40 1015 29.97 845 24.95 7.4 45.3 31 -8.5 16.7
13:45 1015 29.97 845 24.95 7.6 45.7 30 -9 15.8
13:50 1015 29.97 844 24.92 6.9 44.5 32 -8.6 16.6
13:55 1015 29.97 844 24.92 7.3 45.1 30 -9.1 15.7
14:00 1015 29.97 844 24.92 7.4 45.4 30 -9.2 15.5
14:05 1015 29.97 844 24.92 7.7 45.9 29 -9 15.8
14:10 1015 29.97 844 24.92 7.4 45.4 29 -9.5 14.9
14:15 1015 29.97 844 24.92 7.6 45.6 29 -9.4 15.1
14:20 1015 29.97 844 24.92 7.7 45.8 29 -9.4 15.1
14:25 1015 29.97 844 24.92 7.8 46 30 -8.9 15.9
14:30 1015 29.97 844 24.92 8.4 47.1 27 -9.4 15
14:35 1015 29.97 844 24.92 8 46.4 28 -9.2 15.5
14:40 1015 29.97 844 24.92 7.8 46.1 30 -8.9 16
14:45 1015 29.97 844 24.92 8.5 47.2 28 -8.9 15.9
14:50 1015 29.97 844 24.92 8.6 47.5 29 -8.7 16.4
14:55 1015 29.97 844 24.92 8.5 47.3 28 -9 15.7
15:00 1015 29.97 844 24.92 8.3 46.9 29 -8.5 16.6
15:05 1015 29.97 844 24.92 7.9 46.2 30 -8.7 16.4
15:10 1015 29.97 844 24.92 8.4 47 29 -8.5 16.6
15:15 1015 29.97 844 24.92 8.2 46.7 30 -8.4 16.9
15:20 1015 29.97 844 24.92 8.6 47.5 31 -7.8 18
15:25 1014 29.94 844 24.92 7.9 46.1 31 -8.1 17.4
15:30 1014 29.94 843 24.89 7.6 45.7 31 -8.4 16.9
15:35 1014 29.94 843 24.89 7.7 45.8 31 -8.3 17
15:40 1014 29.94 843 24.89 7.8 46 32 -8 17.7
15:45 1014 29.94 843 24.89 7.8 46.1 32 -7.9 17.8
15:50 1014 29.94 843 24.89 7.8 46 33 -7.6 18.3
15:55 1014 29.94 843 24.89 7.4 45.4 33 -7.8 18
16:00 1014 29.94 843 24.89 7.5 45.5 34 -7.3 18.9
16:05 1014 29.94 843 24.89 7.6 45.7 34 -7.1 19.2
16:10 1014 29.94 843 24.89 7.7 45.8 32 -7.9 17.8
16:15 1014 29.94 843 24.89 7.5 45.6 33 -7.8 17.9
16:20 1014 29.94 843 24.89 7.5 45.4 34 -7.5 18.4
16:25 1014 29.94 843 24.89 7.3 45.1 33 -7.8 18
16:30 1014 29.94 843 24.89 7.3 45.1 35 -7.2 19
16:35 1014 29.94 843 24.89 7 44.6 37 -6.7 20
16:40 1014 29.94 843 24.89 6.7 44 41 -5.7 21.7
16:45 1014 29.94 843 24.89 6.7 44.1 40 -6.1 21.1
16:50 1014 29.94 843 24.89 6.9 44.5 38 -6.3 20.6
16:55 1013 29.91 843 24.89 6.9 44.5 40 -5.9 21.4
17:00 1013 29.91 843 24.89 6.9 44.4 40 -5.8 21.5
17:05 1013 29.91 843 24.89 7 44.6 39 -5.8 21.5
17:10 1013 29.91 842 24.86 7 44.6 39 -5.9 21.4
17:15 1013 29.91 842 24.86 6.8 44.3 40 -5.9 21.5
17:20 1013 29.91 842 24.86 7.1 44.7 38 -6.3 20.7
17:25 1013 29.91 842 24.86 7 44.7 39 -6 21.3
17:30 1013 29.91 842 24.86 6.9 44.4 40 -5.6 21.9
17:35 1013 29.91 842 24.86 6.8 44.3 41 -5.7 21.8
17:40 1013 29.91 842 24.86 6.7 44.1 42 -5.4 22.3
17:45 1013 29.91 842 24.86 6.6 44 41 -5.7 21.8
17:50 1013 29.91 842 24.86 6.8 44.3 41 -5.5 22
17:55 1013 29.91 842 24.86 7 44.6 40 -5.5 22
18:00 1013 29.91 842 24.86 7 44.5 40 -5.8 21.5
18:05 1013 29.91 842 24.86 6.9 44.4 40 -5.9 21.4
18:10 1013 29.91 842 24.86 7.2 44.9 39 -5.8 21.6
18:15 1013 29.91 842 24.86 7.6 45.6 38 -6 21.3
18:20 1013 29.91 842 24.86 7.6 45.7 39 -5.5 22.1
18:25 1013 29.91 842 24.86 7.5 45.4 40 -5.2 22.6
18:30 1013 29.91 842 24.86 7.1 44.8 41 -5.4 22.3
18:35 1013 29.91 842 24.86 7 44.5 42 -5.2 22.6
18:40 1013 29.91 842 24.86 6.7 44 42 -5.2 22.6
18:45 1013 29.91 842 24.86 6.6 43.8 43 -5.1 22.8
18:50 1013 29.91 842 24.86 6.5 43.8 43 -5.2 22.7
18:55 1013 29.91 842 24.86 6.5 43.6 44 -4.9 23.1
19:00 1013 29.91 842 24.86 6.4 43.6 44 -4.8 23.3
19:05 1013 29.91 842 24.86 6.5 43.6 44 -5 23.1
19:10 1013 29.91 842 24.86 6.3 43.4 45 -4.7 23.5
19:15 1013 29.91 842 24.86 6.2 43.2 45 -4.7 23.5
19:20 1013 29.91 842 24.86 6 42.8 46 -4.6 23.7
19:25 1013 29.91 842 24.86 5.9 42.7 47 -4.6 23.8
19:30 1012 29.88 842 24.86 5.9 42.7 47 -4.5 23.9
19:35 1013 29.91 842 24.86 5.8 42.4 47 -4.7 23.6
19:40 1013 29.91 842 24.86 5.5 42 49 -4.5 24
19:45 1013 29.91 842 24.86 5.2 41.3 50 -4.4 24.1
19:50 1013 29.91 842 24.86 4.8 40.6 53 -4.1 24.6
19:55 1012 29.88 842 24.86 4.3 39.7 54 -4.1 24.7
20:00 1012 29.88 842 24.86 4.5 40 54 -4.1 24.5
20:05 1012 29.88 841 24.83 4.6 40.4 53 -4.2 24.4
20:10 1012 29.88 841 24.83 4.7 40.5 52 -4.2 24.5
20:15 1012 29.88 841 24.83 4.7 40.5 52 -4.2 24.4
20:20 1012 29.88 841 24.83 4.7 40.4 52 -4.2 24.4
20:25 1012 29.88 841 24.83 4.8 40.6 51 -4.4 24
20:30 1012 29.88 841 24.83 4.8 40.6 52 -4.3 24.3
20:35 1012 29.88 841 24.83 4.6 40.3 53 -4.2 24.4
20:40 1012 29.88 841 24.83 4.7 40.4 53 -4.2 24.5
20:45 1012 29.88 841 24.83 4.7 40.4 53 -4.2 24.5
20:50 1012 29.88 841 24.83 4.8 40.6 52 -4.3 24.2
20:55 1012 29.88 841 24.83 4.8 40.7 52 -4.2 24.5
21:00 1012 29.88 841 24.83 4.8 40.7 52 -4.2 24.5
21:05 1012 29.88 841 24.83 4.8 40.7 51 -4.4 24.1
21:10 1012 29.88 841 24.83 5.1 41.1 49 -4.7 23.6
21:15 1012 29.88 841 24.83 5.4 41.8 48 -4.6 23.6
21:20 1012 29.88 841 24.83 5.5 41.8 48 -4.6 23.7
21:25 1012 29.88 841 24.83 5.4 41.8 48 -4.6 23.7
21:30 1012 29.88 841 24.83 5.4 41.8 50 -4.1 24.7
21:35 1012 29.88 842 24.86 4.9 40.8 55 -3.3 26.1
21:40 1012 29.88 842 24.86 4.5 40.1 61 -2.4 27.8
21:45 1013 29.91 842 24.86 4.1 39.4 67 -1.4 29.5
21:50 1012 29.88 842 24.86 3.7 38.6 72 -0.9 30.5
21:55 1012 29.88 842 24.86 3.1 37.6 78 -0.4 31.3
22:00 1013 29.91 842 24.86 2 35.7 84 -0.4 31.4
22:05 1013 29.91 842 24.86 1.5 34.6 87 -0.4 31.3
22:10 1013 29.91 842 24.86 1.4 34.6 89 -0.2 31.7
22:15 1013 29.91 842 24.86 1.5 34.8 92 0.3 32.5
22:20 1013 29.91 843 24.89 1.6 34.9 92 0.5 32.9
22:25 1013 29.91 843 24.89 1.4 34.5 94 0.5 32.9
22:30 1014 29.94 843 24.89 0.9 33.7 95 0.2 32.4
22:35 1014 29.94 843 24.89 0.5 33 97 0.1 32.1
22:40 1014 29.94 843 24.89 0.4 32.8 98 0.1 32.2
22:45 1014 29.94 843 24.89 0.4 32.7 98 0.1 32.2
22:50 1014 29.94 843 24.89 0.4 32.6 99 0.2 32.3
22:55 1014 29.94 843 24.89 0.3 32.6 99 0.2 32.4
23:00 1014 29.94 843 24.89 0.4 32.7 100 0.3 32.6
23:05 1014 29.94 843 24.89 0.4 32.7 100 0.3 32.6
23:10 1014 29.94 843 24.89 0.4 32.7 100 0.4 32.7
23:15 1014 29.94 843 24.89 0.5 32.9 100 0.5 32.9
23:20 1014 29.94 843 24.89 0.6 33.1 100 0.6 33.1
23:25 1014 29.94 843 24.89 0.7 33.2 100 0.7 33.2
23:30 1014 29.94 843 24.89 0.7 33.3 100 0.7 33.3
23:35 1014 29.94 843 24.89 0.8 33.5 100 0.8 33.4
23:40 1014 29.94 843 24.89 0.8 33.5 100 0.8 33.4
23:45 1014 29.94 843 24.89 0.9 33.6 164 7.9 46.2
23:50 1014 29.94 843 24.89 1.1 33.9 164 8.1 46.6
23:55 1014 29.94 843 24.89 1.2 34.2 164 8.2 46.8
24:00 1014 29.94 843 24.89 1.3 34.3 164 8.3 47